Time;durP1;ratioP1;P1;durP2;ratioP2;P2;SDS_P1;SDS_P2;PMS_P1;PMS_P2;Temp;Humidity;BMP_temperature;BMP_pressure;BME280_temperature;BME280_humidity;BME280_pressure;Samples;Min_cycle;Max_cycle;Signal;HPM_P1;HPM_P2
2021/11/01 00:00:53;;;;;;;3.60;3.30;;;;;;;8.70;56.25;93088.00;4989439;28;20298;-83
2021/11/01 00:03:19;;;;;;;3.87;3.47;;;;;;;8.74;56.30;93078.47;4990541;28;20270;-83
2021/11/01 00:05:46;;;;;;;3.60;3.07;;;;;;;8.76;56.42;93076.34;4986461;28;20682;-84
2021/11/01 00:08:14;;;;;;;3.97;3.57;;;;;;;8.88;56.47;93091.88;4988363;28;20244;-83
2021/11/01 00:10:41;;;;;;;4.53;3.80;;;;;;;8.91;56.39;93087.88;5003641;28;20217;-82
2021/11/01 00:13:07;;;;;;;3.77;3.47;;;;;;;9.01;56.51;93083.31;4989135;28;20686;-83
2021/11/01 00:15:33;;;;;;;5.40;4.87;;;;;;;9.10;56.52;93075.59;4988663;28;20268;-84
2021/11/01 00:18:00;;;;;;;8.17;5.93;;;;;;;9.21;57.13;93061.25;4989796;28;20221;-83
2021/11/01 00:20:28;;;;;;;8.00;7.20;;;;;;;9.40;56.95;93056.09;4988277;28;20227;-84
2021/11/01 00:22:54;;;;;;;7.20;6.50;;;;;;;9.54;57.04;93043.78;4989464;28;20239;-83
2021/11/01 00:25:22;;;;;;;6.27;5.67;;;;;;;9.59;57.23;93054.31;5002075;28;20214;-83
2021/11/01 00:27:48;;;;;;;6.10;5.50;;;;;;;9.75;57.39;93063.69;4988914;28;20269;-83
2021/11/01 00:30:14;;;;;;;6.87;6.13;;;;;;;9.68;57.13;93055.28;5001468;28;20236;-83
2021/11/01 00:32:42;;;;;;;7.43;6.60;;;;;;;9.73;57.48;93045.47;4998129;28;20210;-83
2021/11/01 00:35:08;;;;;;;6.03;5.43;;;;;;;9.85;57.43;93058.28;4987283;28;20246;-84
2021/11/01 00:37:36;;;;;;;7.17;6.47;;;;;;;9.84;57.55;93048.75;4991151;28;20331;-84
2021/11/01 00:40:06;;;;;;;6.67;6.07;;;;;;;9.85;57.94;93047.72;5002577;28;20711;-83
2021/11/01 00:42:36;;;;;;;6.47;5.83;;;;;;;9.85;57.57;93058.28;4997401;28;20219;-83
2021/11/01 00:45:02;;;;;;;6.47;5.87;;;;;;;9.85;57.86;93044.25;4988229;28;20261;-82
2021/11/01 00:47:27;;;;;;;6.73;6.13;;;;;;;9.82;58.17;93040.34;5003886;28;20210;-83
2021/11/01 00:49:53;;;;;;;6.40;5.80;;;;;;;9.82;57.98;93040.34;4987596;28;20426;-83
2021/11/01 00:52:30;;;;;;;7.23;6.47;;;;;;;9.91;57.75;93032.56;4999686;28;20225;-83
2021/11/01 00:55:03;;;;;;;6.60;5.90;;;;;;;9.94;58.18;93032.78;4992469;28;20214;-83
2021/11/01 00:57:31;;;;;;;8.70;6.17;;;;;;;9.97;58.27;93037.50;5003116;28;20219;-83
2021/11/01 00:59:59;;;;;;;9.23;5.67;;;;;;;10.01;58.32;93035.88;4998657;28;20271;-84
2021/11/01 01:02:25;;;;;;;7.00;6.30;;;;;;;9.99;58.29;93027.44;4989617;28;20219;-84
2021/11/01 01:04:53;;;;;;;6.57;5.97;;;;;;;9.96;58.44;93016.63;4991931;28;20212;-83
2021/11/01 01:07:19;;;;;;;6.83;6.13;;;;;;;9.94;58.56;93014.25;4991809;28;20237;-83
2021/11/01 01:09:44;;;;;;;6.60;6.00;;;;;;;9.91;58.78;93020.13;4989721;28;20244;-84
2021/11/01 01:12:11;;;;;;;6.33;5.73;;;;;;;9.87;58.64;93027.03;4986873;28;20217;-83
2021/11/01 01:14:44;;;;;;;6.13;5.53;;;;;;;9.82;58.83;93026.31;4990695;28;20738;-83
2021/11/01 01:17:10;;;;;;;6.07;5.30;;;;;;;9.78;58.82;93023.44;5009323;28;20227;-83
2021/11/01 01:19:50;;;;;;;7.03;5.47;;;;;;;9.69;58.49;93020.63;4979338;28;20218;-84
2021/11/01 01:25:46;;;;;;;6.83;4.90;;;;;;;9.79;59.21;93030.31;4936131;29;20216;-83
2021/11/01 01:28:12;;;;;;;5.83;5.23;;;;;;;9.68;59.11;93024.31;4942432;29;20242;-83
2021/11/01 01:30:43;;;;;;;6.13;5.53;;;;;;;9.77;58.96;93035.88;4918232;29;20806;-83
2021/11/01 01:33:11;;;;;;;6.73;6.00;;;;;;;9.74;59.00;93033.78;4919635;28;20731;-83
2021/11/01 01:35:40;;;;;;;6.77;6.13;;;;;;;9.74;59.25;93036.44;4940790;28;20233;-83
2021/11/01 01:38:06;;;;;;;8.93;6.00;;;;;;;9.77;59.45;93029.78;4943187;28;20215;-83
2021/11/01 01:40:32;;;;;;;7.07;6.37;;;;;;;9.82;59.69;93024.44;4903598;29;20213;-82
2021/11/01 01:43:03;;;;;;;6.60;6.00;;;;;;;9.94;59.54;93008.19;4937015;28;20225;-84
2021/11/01 01:45:31;;;;;;;7.57;6.33;;;;;;;9.83;59.21;92993.50;4932348;29;20212;-83
2021/11/01 01:47:57;;;;;;;7.60;6.50;;;;;;;9.93;59.64;93004.75;4945324;29;20229;-83
2021/11/01 01:50:23;;;;;;;8.10;7.30;;;;;;;9.90;59.51;93005.31;4933973;29;20254;-82
2021/11/01 01:52:53;;;;;;;7.10;6.40;;;;;;;9.95;59.74;93007.09;4933507;29;20221;-83
2021/11/01 01:55:21;;;;;;;8.23;7.40;;;;;;;10.00;59.87;93021.09;4919796;29;20233;-83
2021/11/01 01:57:53;;;;;;;7.17;6.47;;;;;;;10.03;60.07;93030.31;4951026;29;20579;-83
2021/11/01 02:02:56;;;;;;;9.10;8.10;;;;;;;10.04;60.33;93022.06;4989190;28;20213;-82
2021/11/01 02:05:31;;;;;;;8.27;7.47;;;;;;;9.95;60.04;93015.03;5002945;28;20217;-83
2021/11/01 02:08:05;;;;;;;9.30;7.97;;;;;;;9.95;60.13;93025.63;5007758;28;20392;-83
2021/11/01 02:10:42;;;;;;;9.07;7.27;;;;;;;9.81;60.52;93025.50;4978976;28;20898;-83
2021/11/01 02:13:22;;;;;;;7.67;6.87;;;;;;;9.74;60.42;93027.69;4992031;28;20208;-83
2021/11/01 02:15:49;;;;;;;9.00;7.30;;;;;;;9.69;60.42;93025.91;4990427;28;20280;-82
2021/11/01 02:18:16;;;;;;;8.73;7.83;;;;;;;9.68;60.38;93026.97;5002709;28;20223;-82
2021/11/01 02:21:04;;;;;;;10.00;8.77;;;;;;;9.66;60.58;93042.34;5006971;28;20268;-83
2021/11/01 02:23:53;;;;;;;9.73;8.20;;;;;;;9.55;60.89;93038.22;5005286;28;20220;-83
2021/11/01 02:26:20;;;;;;;10.33;9.30;;;;;;;9.51;60.69;93023.16;5005656;28;20969;-83
2021/11/01 02:28:47;;;;;;;12.83;10.60;;;;;;;9.53;60.82;93024.50;5000523;28;20257;-84
2021/11/01 02:31:17;;;;;;;12.23;10.90;;;;;;;9.66;60.86;93031.75;4923899;28;1471966;-83
2021/11/01 02:33:43;;;;;;;11.50;10.33;;;;;;;9.72;60.92;93024.56;4989165;28;20216;-82
2021/11/01 02:36:09;;;;;;;10.50;9.50;;;;;;;9.65;61.05;93006.38;4991593;28;20213;-83
2021/11/01 02:38:34;;;;;;;11.57;10.37;;;;;;;9.73;61.46;93023.50;5002123;28;20213;-84
2021/11/01 02:41:17;;;;;;;11.37;9.97;;;;;;;9.74;60.75;93033.78;4973475;28;20227;-83
2021/11/01 02:43:47;;;;;;;9.67;8.70;;;;;;;9.72;61.16;93025.34;5004530;28;20683;-83
2021/11/01 02:46:12;;;;;;;11.00;9.60;;;;;;;9.56;61.19;93017.84;5003967;28;20217;-83
2021/11/01 02:48:38;;;;;;;10.13;8.77;;;;;;;9.59;61.38;93023.38;4992819;28;20221;-83
2021/11/01 02:51:03;;;;;;;10.63;9.53;;;;;;;9.56;61.75;93021.28;4988810;28;20235;-84
2021/11/01 02:53:28;;;;;;;10.83;9.03;;;;;;;9.55;61.38;93022.34;4976411;28;20226;-83
2021/11/01 02:55:56;;;;;;;9.03;8.17;;;;;;;9.64;61.81;93019.88;5004769;28;20217;-83
2021/11/01 02:58:23;;;;;;;9.80;8.80;;;;;;;9.65;61.96;93018.81;5002285;28;20229;-84
2021/11/01 03:00:51;;;;;;;9.90;8.90;;;;;;;9.66;61.83;93039.72;4987652;28;20700;-83
2021/11/01 03:03:17;;;;;;;10.10;9.10;;;;;;;9.55;61.50;93016.25;4990029;28;20303;-84
2021/11/01 03:05:45;;;;;;;13.33;8.53;;;;;;;9.59;61.98;93023.38;4975769;28;20310;-83
2021/11/01 03:08:11;;;;;;;9.43;7.93;;;;;;;9.59;61.71;93022.56;4991256;28;20214;-84
2021/11/01 03:10:42;;;;;;;9.60;8.70;;;;;;;9.73;62.24;93036.72;4991453;28;20221;-83
2021/11/01 03:13:08;;;;;;;9.70;8.70;;;;;;;9.69;62.04;93038.34;5005293;28;20708;-84
2021/11/01 03:15:33;;;;;;;10.03;8.77;;;;;;;9.72;61.95;93022.69;5003059;28;20244;-83
2021/11/01 03:18:05;;;;;;;10.30;9.27;;;;;;;9.79;62.33;93033.75;5001493;28;22826;-83
2021/11/01 03:20:36;;;;;;;10.27;9.03;;;;;;;9.79;62.40;93032.97;5003316;28;20780;-82
2021/11/01 03:23:09;;;;;;;11.67;10.23;;;;;;;9.88;62.21;93033.91;4987517;28;20223;-83
2021/11/01 03:25:58;;;;;;;12.90;9.70;;;;;;;9.80;62.27;93016.03;4989730;28;20299;-82
2021/11/01 03:28:24;;;;;;;10.40;9.20;;;;;;;9.98;62.49;93033.81;4987343;28;20245;-83
2021/11/01 03:30:50;;;;;;;10.70;9.60;;;;;;;10.01;62.32;93027.94;4992034;28;20783;-84
2021/11/01 03:33:17;;;;;;;10.33;9.30;;;;;;;10.02;62.90;93008.34;4969354;28;20212;-83
2021/11/01 03:35:44;;;;;;;10.10;9.10;;;;;;;10.06;62.61;93033.19;4997710;28;20308;-84
2021/11/01 03:38:11;;;;;;;11.13;9.60;;;;;;;10.10;62.46;93036.84;5002010;28;20721;-83
2021/11/01 03:40:40;;;;;;;9.00;8.10;;;;;;;10.10;62.65;93020.97;4990922;28;20239;-83
2021/11/01 03:43:06;;;;;;;9.77;8.37;;;;;;;10.14;62.87;93040.53;4989363;28;20219;-84
2021/11/01 03:45:35;;;;;;;9.10;7.70;;;;;;;10.36;63.23;93045.31;5000098;28;20309;-83
2021/11/01 03:48:04;;;;;;;8.20;7.40;;;;;;;10.37;62.83;93036.31;5004554;28;20748;-83
2021/11/01 03:50:39;;;;;;;8.60;7.70;;;;;;;10.53;63.14;93045.63;5003858;28;20249;-84
2021/11/01 03:53:10;;;;;;;8.07;7.27;;;;;;;10.67;63.04;93041.22;4992269;28;20312;-83
2021/11/01 03:55:35;;;;;;;8.10;7.30;;;;;;;10.82;63.33;93051.59;5004221;28;20225;-83
2021/11/01 03:58:01;;;;;;;8.10;7.23;;;;;;;10.93;63.40;93041.63;4972211;28;20312;-84
2021/11/01 04:00:33;;;;;;;8.20;7.40;;;;;;;11.07;63.23;93053.09;4992071;28;20765;-83
2021/11/01 04:02:59;;;;;;;7.70;6.90;;;;;;;11.15;63.55;93052.41;5002613;28;20295;-83
2021/11/01 04:05:25;;;;;;;7.63;6.93;;;;;;;11.26;63.50;93040.59;5001732;28;20296;-84
2021/11/01 04:07:51;;;;;;;7.33;6.63;;;;;;;11.39;63.42;93041.72;4990539;28;20247;-83
2021/11/01 04:10:16;;;;;;;8.03;7.23;;;;;;;11.50;63.76;93053.75;4989413;28;20222;-83
2021/11/01 04:12:42;;;;;;;8.17;7.37;;;;;;;11.60;63.91;93066.84;4989919;28;20230;-83
2021/11/01 04:15:12;;;;;;;7.80;7.00;;;;;;;11.70;63.64;93071.19;5004475;28;20220;-83
2021/11/01 04:22:54;;;;;;;9.60;7.93;;;;;;;12.01;63.80;93077.59;4989061;28;20225;-83
2021/11/01 04:25:22;;;;;;;11.10;10.00;;;;;;;11.98;64.23;93072.06;4999183;28;20249;-83
2021/11/01 04:27:50;;;;;;;10.60;9.50;;;;;;;12.00;64.25;93101.75;4975916;28;20801;-84
2021/11/01 04:30:16;;;;;;;9.77;8.77;;;;;;;11.89;64.54;93087.88;5004308;28;20237;-83
2021/11/01 04:32:50;;;;;;;9.40;8.50;;;;;;;11.87;64.34;93084.72;4973578;28;20610;-84
2021/11/01 04:35:23;;;;;;;10.00;9.00;;;;;;;11.75;64.53;93090.50;5004811;28;20307;-84
2021/11/01 04:37:58;;;;;;;9.40;8.50;;;;;;;11.73;64.46;93100.63;5002150;28;20298;-83
2021/11/01 04:54:01;;;;;;;10.60;9.60;;;;;;;11.82;64.94;93117.44;4988703;28;20232;-84
2021/11/01 04:56:28;;;;;;;9.60;8.70;;;;;;;11.92;64.76;93102.44;5002764;28;20219;-83
2021/11/01 04:58:54;;;;;;;8.93;8.03;;;;;;;11.85;65.19;93116.09;4987096;28;20229;-83
2021/11/01 05:01:38;;;;;;;7.43;6.50;;;;;;;11.80;65.07;93118.81;4989846;28;20697;-83
2021/11/01 05:04:08;;;;;;;6.23;5.70;;;;;;;11.82;65.00;93122.75;4989690;28;20271;-84
2021/11/01 05:06:35;;;;;;;6.20;5.70;;;;;;;11.83;65.12;93128.88;5002389;28;20586;-83
2021/11/01 05:09:09;;;;;;;5.90;5.40;;;;;;;11.81;64.98;93118.56;5000026;28;20226;-84
2021/11/01 05:11:43;;;;;;;5.90;5.23;;;;;;;11.87;65.20;93131.72;4970611;28;20211;-84
2021/11/01 05:14:13;;;;;;;4.40;4.00;;;;;;;11.90;65.33;93139.91;4990993;28;20674;-84
2021/11/01 05:20:27;;;;;;;3.60;3.30;;;;;;;11.77;65.59;93152.06;4971879;28;20278;-84
2021/11/01 05:22:38;;;;;;;4.73;4.20;;;;;;;11.69;65.46;93143.91;4945268;28;20272;-84
2021/11/01 05:25:20;;;;;;;1.60;1.50;;;;;;;11.66;65.26;93144.50;4969277;28;20235;-84
2021/11/01 05:30:33;;;;;;;1.70;1.60;;;;;;;11.56;65.56;93147.31;4951781;28;20281;-82
2021/11/01 05:35:27;;;;;;;1.73;1.63;;;;;;;11.31;65.71;93146.59;4966353;28;20230;-83
2021/11/01 05:37:55;;;;;;;1.90;1.50;;;;;;;11.34;66.02;93153.22;4966792;28;20230;-83
2021/11/01 05:40:21;;;;;;;2.23;2.00;;;;;;;11.39;66.05;93160.28;4967196;28;20210;-82
2021/11/01 05:42:47;;;;;;;2.13;1.77;;;;;;;11.34;66.14;93155.88;4951043;28;20241;-83
2021/11/01 05:45:12;;;;;;;2.33;1.90;;;;;;;11.31;66.20;93156.44;4948849;28;20219;-83
2021/11/01 05:47:41;;;;;;;2.67;2.10;;;;;;;11.28;66.17;93154.38;4964036;28;20212;-83
2021/11/01 05:50:06;;;;;;;2.30;2.00;;;;;;;11.27;66.44;93160.75;4985231;28;20338;-84
2021/11/01 05:52:35;;;;;;;1.73;1.63;;;;;;;11.27;65.72;93177.44;4976484;28;20221;-85
2021/11/01 05:55:11;;;;;;;1.10;1.10;;;;;;;11.26;66.03;93159.94;4976751;28;20702;-85
2021/11/01 05:58:04;;;;;;;2.03;0.90;;;;;;;11.17;66.32;93163.53;4992298;28;20215;-84
2021/11/01 06:13:53;;;;;;;2.60;1.30;;;;;;;11.04;66.71;93201.34;4954470;28;20225;-84
2021/11/01 06:16:19;;;;;;;2.13;1.80;;;;;;;11.01;66.36;93208.00;4955169;28;20222;-85
2021/11/01 06:18:44;;;;;;;2.00;0.90;;;;;;;10.86;66.48;93197.59;4955241;28;20218;-86
2021/11/01 06:21:15;;;;;;;1.63;1.20;;;;;;;10.82;66.87;93205.31;4937160;28;20255;-85
2021/11/01 06:23:51;;;;;;;0.70;0.60;;;;;;;10.81;66.88;93221.50;4968235;28;20308;-85
2021/11/01 06:26:17;;;;;;;1.20;1.10;;;;;;;10.78;66.78;93227.34;4953597;28;20345;-84
2021/11/01 06:28:44;;;;;;;2.13;1.07;;;;;;;10.81;67.00;93232.13;4969707;28;20295;-84
2021/11/01 06:31:25;;;;;;;1.53;0.80;;;;;;;10.84;66.92;93233.41;4952609;28;20311;-84
2021/11/01 06:44:45;;;;;;;2.10;1.30;;;;;;;10.70;67.07;93244.69;4939421;28;20227;-82
2021/11/01 06:50:01;;;;;;;1.83;1.60;;;;;;;10.63;66.75;93259.31;4999597;28;20380;-83
2021/11/01 06:52:57;;;;;;;1.10;1.00;;;;;;;10.61;67.11;93250.88;4989854;28;20212;-84
2021/11/01 07:17:41;;;;;;;4.63;4.23;;;;;;;10.51;67.45;93304.72;4938516;28;20741;-82
2021/11/01 07:23:31;;;;;;;4.13;3.83;;;;;;;10.67;67.39;93305.41;4955563;28;20287;-82
2021/11/01 09:01:09;;;;;;;1.17;0.50;;;;;;;10.82;68.76;93350.31;4943454;28;20281;-83
2021/11/01 09:03:20;;;;;;;1.10;0.60;;;;;;;10.95;68.85;93360.25;4960139;28;20387;-83
2021/11/01 09:24:54;;;;;;;0.20;0.20;;;;;;;10.75;68.71;93324.13;4950484;28;20281;-83
2021/11/01 09:27:21;;;;;;;0.70;0.17;;;;;;;10.74;68.85;93332.38;4948097;28;20271;-83
2021/11/01 09:43:05;;;;;;;0.30;0.20;;;;;;;10.74;68.99;93319.88;4948700;28;21124;-85
2021/11/01 09:45:34;;;;;;;0.47;0.27;;;;;;;10.69;69.30;93319.94;4948134;28;20762;-83
2021/11/01 09:48:00;;;;;;;1.20;0.20;;;;;;;10.70;69.05;93316.25;4934626;29;20232;-84
2021/11/01 09:50:26;;;;;;;0.30;0.20;;;;;;;10.67;69.34;93313.34;4949023;28;20704;-83
2021/11/01 09:53:00;;;;;;;0.37;0.20;;;;;;;10.67;69.08;93316.78;4967157;28;20224;-83
2021/11/01 10:00:41;;;;;;;0.70;0.50;;;;;;;10.87;69.46;93310.50;4990948;28;20219;-84
2021/11/01 10:03:06;;;;;;;0.50;0.43;;;;;;;10.96;69.37;93308.81;5005649;28;20207;-85
2021/11/01 10:05:34;;;;;;;0.80;0.40;;;;;;;11.11;69.53;93310.53;4973978;28;20215;-85
2021/11/01 10:08:00;;;;;;;0.53;0.30;;;;;;;11.14;69.52;93310.75;4975134;28;20712;-85
2021/11/01 10:10:30;;;;;;;0.60;0.23;;;;;;;11.13;69.44;93298.56;4990103;28;20213;-85
2021/11/01 10:13:01;;;;;;;0.20;0.13;;;;;;;11.21;69.38;93303.22;4987589;28;20681;-85
2021/11/01 10:18:19;;;;;;;0.40;0.10;;;;;;;11.15;69.60;93300.91;5003376;28;20353;-84
2021/11/01 10:20:46;;;;;;;0.20;0.10;;;;;;;11.10;69.48;93285.88;4974833;28;20746;-83
2021/11/01 10:23:17;;;;;;;0.30;0.10;;;;;;;11.09;69.30;93291.44;5005711;28;20349;-84
2021/11/01 10:25:43;;;;;;;0.27;0.17;;;;;;;11.20;69.35;93301.66;4990691;28;20206;-84
2021/11/01 10:28:11;;;;;;;0.50;0.17;;;;;;;11.15;69.19;93287.66;4987827;28;20227;-84
2021/11/01 10:30:40;;;;;;;0.10;0.10;;;;;;;10.99;69.34;93302.94;4987423;28;20226;-83
2021/11/01 10:33:07;;;;;;;0.40;0.20;;;;;;;10.93;69.41;93297.97;4989777;28;20217;-84
2021/11/01 10:35:37;;;;;;;0.20;0.10;;;;;;;10.89;69.22;93287.16;4987894;28;21948;-85
2021/11/01 10:38:24;;;;;;;0.20;0.10;;;;;;;10.84;69.20;93294.38;4992377;28;20213;-84
2021/11/01 11:13:51;;;;;;;0.30;0.13;;;;;;;10.58;69.52;93269.97;4999258;28;20249;-83
2021/11/01 11:27:35;;;;;;;0.10;0.10;;;;;;;11.00;69.59;93250.72;4977836;28;20588;-83
2021/11/01 11:47:49;;;;;;;0.07;0.07;;;;;;;10.90;69.52;93201.25;4981196;28;20388;-81
2021/11/01 11:50:15;;;;;;;0.20;0.10;;;;;;;10.89;69.43;93198.88;4988195;28;20277;-81
2021/11/01 11:52:43;;;;;;;0.10;0.10;;;;;;;10.81;69.43;93198.44;4987198;28;20219;-80
2021/11/01 11:55:24;;;;;;;0.30;0.10;;;;;;;10.76;69.85;93190.53;4959514;28;20228;-80
2021/11/01 11:58:11;;;;;;;0.00;0.00;;;;;;;10.69;69.82;93181.34;4968592;28;20691;-80
2021/11/01 12:00:39;;;;;;;0.60;0.10;;;;;;;10.60;69.75;93189.16;4985064;28;20307;-80
2021/11/01 12:03:20;;;;;;;0.07;0.07;;;;;;;10.46;69.24;93180.28;4984402;28;20212;-80
2021/11/01 12:05:52;;;;;;;0.10;0.10;;;;;;;10.48;69.53;93180.78;4989091;28;20215;-80
2021/11/01 12:19:05;;;;;;;0.40;0.13;;;;;;;10.52;69.45;93187.09;4998472;28;20231;-81
2021/11/01 12:21:32;;;;;;;0.20;0.20;;;;;;;10.51;69.95;93172.25;5008087;28;20299;-80
2021/11/01 12:23:57;;;;;;;0.73;0.17;;;;;;;10.49;69.60;93157.72;4989684;28;20224;-81
2021/11/01 12:26:26;;;;;;;0.60;0.20;;;;;;;10.40;69.74;93148.84;5009367;28;20212;-81
2021/11/01 12:28:57;;;;;;;0.20;0.20;;;;;;;10.32;69.65;93160.03;4989413;28;20220;-82
2021/11/01 12:31:23;;;;;;;0.37;0.10;;;;;;;10.43;69.58;93148.25;5004404;28;20306;-81
2021/11/01 12:34:03;;;;;;;0.40;0.10;;;;;;;10.54;69.58;93141.78;4989439;28;20716;-81
2021/11/01 12:36:42;;;;;;;0.10;0.10;;;;;;;10.64;69.57;93144.31;5004201;28;20238;-82
2021/11/01 12:39:21;;;;;;;0.33;0.10;;;;;;;10.62;69.52;93149.09;4971857;28;20895;-81
2021/11/01 12:58:44;;;;;;;0.33;0.23;;;;;;;10.93;69.91;93096.50;4994844;28;20297;-83
2021/11/01 13:01:16;;;;;;;0.20;0.20;;;;;;;10.89;70.03;93109.53;5009386;28;20852;-81
2021/11/01 13:03:57;;;;;;;2.27;0.50;;;;;;;11.07;69.88;93108.78;4993082;28;20621;-83
2021/11/01 13:09:13;;;;;;;2.67;0.30;;;;;;;11.33;70.16;93086.09;4993220;28;20214;-82
2021/11/01 13:19:25;;;;;;;1.60;0.90;;;;;;;11.25;70.04;93070.84;5005536;28;20228;-82
2021/11/01 13:22:03;;;;;;;2.60;1.00;;;;;;;11.42;70.38;93077.47;4992183;28;20575;-82
2021/11/01 13:24:42;;;;;;;0.77;0.40;;;;;;;11.51;70.06;93084.50;4995201;28;20205;-81
2021/11/01 13:38:48;;;;;;;0.77;0.60;;;;;;;11.56;70.13;93108.28;4995154;28;20741;-81
2021/11/01 13:41:22;;;;;;;1.90;0.50;;;;;;;11.61;69.97;93110.09;5013194;28;20749;-82
2021/11/01 13:43:50;;;;;;;0.67;0.60;;;;;;;11.55;70.28;93087.38;5019600;28;20215;-81
2021/11/01 13:46:17;;;;;;;1.07;0.60;;;;;;;11.59;70.17;93085.69;5008128;28;20287;-83
2021/11/01 13:48:56;;;;;;;1.20;0.60;;;;;;;11.68;70.12;93089.28;5011080;28;20201;-82
2021/11/01 13:51:29;;;;;;;1.33;0.50;;;;;;;11.61;70.07;93084.34;5024851;28;20219;-83
2021/11/01 13:54:28;;;;;;;0.37;0.27;;;;;;;11.58;70.34;93071.66;5011193;28;20214;-81
2021/11/01 13:56:47;;;;;;;0.50;0.30;;;;;;;11.60;70.39;93061.53;5005881;28;20246;-79
